Time;durP1;ratioP1;P1;durP2;ratioP2;P2;SDS_P1;SDS_P2;PMS_P1;PMS_P2;Temp;Humidity;BMP_temperature;BMP_pressure;BME280_temperature;BME280_humidity;BME280_pressure;Samples;Min_cycle;Max_cycle;Signal;HPM_P1;HPM_P2
2022/04/16 00:01:10;;;;;;;5.03;3.45;;;9.60;67.50;;;;;;5055829;28;20060;-82
2022/04/16 00:03:35;;;;;;;7.47;4.07;;;9.50;67.50;;;;;;5055012;28;20067;-82
2022/04/16 00:06:02;;;;;;;5.85;3.47;;;9.50;67.60;;;;;;5054847;28;20045;-82
2022/04/16 00:08:29;;;;;;;6.07;3.22;;;9.60;67.60;;;;;;5054811;28;20029;-81
2022/04/16 00:10:56;;;;;;;5.57;3.33;;;9.50;67.50;;;;;;5056544;28;20083;-81
2022/04/16 00:13:23;;;;;;;4.60;3.13;;;9.50;67.60;;;;;;5056377;28;20098;-81
2022/04/16 00:15:50;;;;;;;5.22;2.88;;;9.60;67.60;;;;;;5037913;28;20047;-81
2022/04/16 00:18:17;;;;;;;4.65;2.75;;;9.60;67.60;;;;;;5054951;28;20029;-81
2022/04/16 00:20:49;;;;;;;5.00;2.55;;;9.60;67.30;;;;;;5055110;28;20032;-81
2022/04/16 00:23:16;;;;;;;5.30;2.78;;;9.50;67.40;;;;;;5054588;28;20033;-81
2022/04/16 00:25:43;;;;;;;4.85;2.88;;;9.50;67.80;;;;;;5055033;28;20462;-81
2022/04/16 00:28:09;;;;;;;4.47;2.55;;;9.50;68.20;;;;;;5037944;28;20025;-81
2022/04/16 00:30:39;;;;;;;6.10;3.20;;;9.40;68.20;;;;;;5054761;28;20060;-82
2022/04/16 00:33:10;;;;;;;6.63;2.78;;;9.40;68.40;;;;;;5054556;28;20039;-80
2022/04/16 00:35:37;;;;;;;6.30;2.63;;;9.40;68.40;;;;;;5054540;28;20021;-80
2022/04/16 00:38:04;;;;;;;6.07;2.80;;;9.40;68.40;;;;;;5056083;28;20059;-80
2022/04/16 00:40:30;;;;;;;4.53;2.63;;;9.30;68.30;;;;;;5055676;28;20021;-80
2022/04/16 00:42:56;;;;;;;4.75;2.50;;;9.30;68.40;;;;;;5053026;28;20033;-80
2022/04/16 00:45:22;;;;;;;3.83;2.78;;;9.20;68.50;;;;;;5054517;28;20374;-80
2022/04/16 00:47:47;;;;;;;7.93;3.05;;;9.20;68.40;;;;;;5054171;28;20139;-80
2022/04/16 00:50:13;;;;;;;5.13;2.55;;;9.20;68.50;;;;;;5054350;28;20024;-81
2022/04/16 00:52:40;;;;;;;4.45;2.83;;;9.20;68.50;;;;;;5054532;28;20056;-81
2022/04/16 00:55:08;;;;;;;5.13;3.28;;;9.20;68.50;;;;;;5055549;28;20031;-80
2022/04/16 00:57:38;;;;;;;5.00;2.85;;;9.10;69.00;;;;;;5054240;28;20028;-80
2022/04/16 01:00:05;;;;;;;6.25;2.80;;;9.00;69.00;;;;;;5054319;28;20025;-80
2022/04/16 01:02:31;;;;;;;4.90;3.17;;;9.00;69.60;;;;;;5060732;28;20025;-79
2022/04/16 01:04:57;;;;;;;3.95;3.10;;;8.90;69.70;;;;;;5044083;28;20040;-80
2022/04/16 01:07:23;;;;;;;5.15;2.80;;;8.80;70.20;;;;;;5045858;28;20040;-80
2022/04/16 01:09:51;;;;;;;4.38;2.50;;;8.80;70.10;;;;;;5055103;28;20057;-79
2022/04/16 01:12:17;;;;;;;5.22;3.22;;;8.80;70.00;;;;;;5054839;28;20024;-79
2022/04/16 01:14:49;;;;;;;7.35;3.30;;;8.70;70.40;;;;;;5054336;28;20017;-80
2022/04/16 01:17:15;;;;;;;5.00;2.85;;;8.80;70.50;;;;;;5054725;28;20026;-81
2022/04/16 01:19:41;;;;;;;7.18;3.22;;;8.80;70.50;;;;;;5037464;28;20060;-80
2022/04/16 01:22:14;;;;;;;7.65;4.38;;;8.80;70.40;;;;;;5053717;28;20118;-81
2022/04/16 01:24:48;;;;;;;9.30;5.15;;;8.80;70.30;;;;;;5054191;28;20021;-82
2022/04/16 01:27:18;;;;;;;10.38;5.35;;;8.70;70.30;;;;;;5053756;28;20017;-82
2022/04/16 01:29:44;;;;;;;11.38;5.05;;;8.80;70.50;;;;;;5054116;28;20048;-80
2022/04/16 01:32:10;;;;;;;7.15;4.65;;;8.70;70.40;;;;;;5053664;28;20051;-79
2022/04/16 01:34:37;;;;;;;8.32;5.38;;;8.70;70.60;;;;;;5053643;28;20031;-81
2022/04/16 01:37:04;;;;;;;10.52;6.57;;;8.70;71.00;;;;;;5052776;28;20508;-81
2022/04/16 01:39:30;;;;;;;10.65;6.10;;;8.70;71.10;;;;;;5053174;28;20482;-82
2022/04/16 01:42:01;;;;;;;12.23;7.20;;;8.60;70.90;;;;;;5036753;28;20131;-82
2022/04/16 01:44:29;;;;;;;18.70;9.90;;;8.60;70.80;;;;;;5053281;28;20021;-80
2022/04/16 01:46:55;;;;;;;17.52;9.02;;;8.70;70.90;;;;;;5053580;28;20371;-81
2022/04/16 01:49:20;;;;;;;14.15;9.00;;;8.60;71.00;;;;;;5053067;28;20031;-80
2022/04/16 01:51:47;;;;;;;16.00;9.63;;;8.50;71.20;;;;;;5053265;28;20037;-81
2022/04/16 01:54:14;;;;;;;16.30;8.52;;;8.50;71.20;;;;;;5052490;28;20060;-81
2022/04/16 01:56:39;;;;;;;12.70;6.63;;;8.50;71.30;;;;;;5053218;28;20723;-81
2022/04/16 01:59:08;;;;;;;6.97;4.57;;;8.50;71.20;;;;;;5052537;28;20056;-81
2022/04/16 02:01:35;;;;;;;7.03;4.45;;;8.50;71.20;;;;;;5053166;28;20036;-80
2022/04/16 02:04:01;;;;;;;7.50;3.80;;;8.50;71.00;;;;;;5052738;28;20559;-80
2022/04/16 02:06:26;;;;;;;4.53;3.78;;;8.50;71.00;;;;;;5052685;28;20056;-79
2022/04/16 02:08:52;;;;;;;7.43;3.33;;;8.40;71.00;;;;;;5052248;28;20116;-80
2022/04/16 02:11:18;;;;;;;4.88;3.40;;;8.50;71.20;;;;;;5036393;28;20029;-81
2022/04/16 02:13:45;;;;;;;6.80;3.33;;;8.40;72.00;;;;;;5052632;28;20017;-80
2022/04/16 02:16:11;;;;;;;5.57;3.08;;;8.40;71.00;;;;;;5052708;28;20027;-80
2022/04/16 02:18:38;;;;;;;4.05;3.08;;;8.40;71.10;;;;;;5035874;28;20521;-81
2022/04/16 02:21:03;;;;;;;7.57;3.42;;;8.30;71.00;;;;;;5052572;28;20033;-80
2022/04/16 02:23:31;;;;;;;4.65;3.30;;;8.30;71.40;;;;;;5053697;28;20723;-80
2022/04/16 02:26:02;;;;;;;4.50;2.63;;;8.20;71.70;;;;;;5052517;28;20035;-80
2022/04/16 02:28:30;;;;;;;6.50;3.30;;;8.20;71.80;;;;;;5036138;28;20545;-80
2022/04/16 02:30:56;;;;;;;5.10;3.08;;;8.10;72.00;;;;;;5035880;28;20517;-81
2022/04/16 02:33:22;;;;;;;5.28;3.30;;;8.20;72.00;;;;;;5052117;28;20032;-78
2022/04/16 02:35:49;;;;;;;4.70;2.97;;;8.20;72.00;;;;;;5052097;28;20478;-80
2022/04/16 02:38:15;;;;;;;3.50;2.67;;;8.10;71.90;;;;;;5035511;28;20037;-80
2022/04/16 02:40:40;;;;;;;5.97;3.65;;;8.10;72.00;;;;;;5052032;28;20025;-80
2022/04/16 02:43:07;;;;;;;5.13;3.20;;;8.10;72.10;;;;;;5051586;28;20143;-80
2022/04/16 02:48:17;;;;;;;5.10;2.58;;;8.00;72.00;;;;;;5053757;28;20071;-80
2022/04/16 02:50:44;;;;;;;5.10;2.58;;;8.10;72.10;;;;;;5045196;28;20471;-81
2022/04/16 02:53:12;;;;;;;9.20;3.38;;;8.00;72.00;;;;;;5071747;28;20031;-79
2022/04/16 02:55:37;;;;;;;4.47;3.13;;;7.90;72.80;;;;;;5066905;28;20025;-80
2022/04/16 02:58:03;;;;;;;6.43;3.30;;;7.90;72.20;;;;;;5067199;28;20021;-80
2022/04/16 03:00:29;;;;;;;6.03;3.22;;;7.80;72.30;;;;;;5052067;28;20021;-81
2022/04/16 03:02:55;;;;;;;4.40;2.97;;;7.70;72.20;;;;;;5051546;28;20036;-80
2022/04/16 03:05:25;;;;;;;4.63;2.60;;;7.70;72.20;;;;;;5034761;28;20045;-80
2022/04/16 03:07:50;;;;;;;3.88;2.40;;;7.70;72.40;;;;;;5051224;28;20478;-80
2022/04/16 03:10:20;;;;;;;4.10;2.78;;;7.70;72.30;;;;;;5051395;28;20112;-81
2022/04/16 03:12:48;;;;;;;3.38;2.65;;;7.70;72.20;;;;;;5053249;28;20145;-81
2022/04/16 03:18:02;;;;;;;3.80;2.92;;;7.80;72.10;;;;;;5066239;28;20040;-80
2022/04/16 03:20:29;;;;;;;5.32;2.80;;;7.80;71.90;;;;;;5062848;28;20482;-80
2022/04/16 03:22:56;;;;;;;4.78;2.47;;;7.80;71.70;;;;;;5057476;28;20167;-79
2022/04/16 03:25:25;;;;;;;5.93;2.53;;;7.70;71.90;;;;;;5035316;28;20472;-80
2022/04/16 03:27:51;;;;;;;3.60;2.53;;;7.70;72.20;;;;;;5051580;28;20051;-80
2022/04/16 03:30:19;;;;;;;6.85;2.95;;;7.60;72.80;;;;;;5051287;28;20428;-80
2022/04/16 03:32:47;;;;;;;4.57;3.17;;;7.60;73.30;;;;;;5051096;28;20025;-80
2022/04/16 03:35:13;;;;;;;4.50;2.75;;;7.40;73.60;;;;;;5051469;28;20028;-81
2022/04/16 03:37:39;;;;;;;4.65;2.72;;;7.50;73.70;;;;;;5052330;28;20025;-80
2022/04/16 03:40:06;;;;;;;6.15;3.47;;;7.50;73.90;;;;;;5050923;28;20029;-80
2022/04/16 03:42:32;;;;;;;5.65;3.00;;;7.50;74.30;;;;;;5052622;28;20037;-81
2022/04/16 03:45:00;;;;;;;4.63;3.00;;;7.50;74.20;;;;;;5051454;28;20028;-81
2022/04/16 03:47:30;;;;;;;4.90;2.78;;;7.50;74.00;;;;;;5052878;28;20128;-81
2022/04/16 03:49:57;;;;;;;2.85;2.60;;;7.60;73.50;;;;;;5051100;28;20028;-81
2022/04/16 03:52:22;;;;;;;4.25;2.90;;;7.60;73.00;;;;;;5034715;28;20076;-81
2022/04/16 04:00:18;;;;;;;5.15;2.90;;;7.50;73.10;;;;;;5052898;28;20413;-81
2022/04/16 04:02:45;;;;;;;6.55;3.33;;;7.50;73.00;;;;;;5050968;28;20041;-81
2022/04/16 04:05:14;;;;;;;12.93;8.35;;;7.40;72.90;;;;;;5034674;28;20053;-81
2022/04/16 04:07:40;;;;;;;13.85;8.93;;;7.40;73.10;;;;;;5051288;28;20119;-81
2022/04/16 04:10:06;;;;;;;7.47;5.05;;;7.40;73.10;;;;;;5034337;28;20120;-81
2022/04/16 04:12:32;;;;;;;5.65;3.80;;;7.40;72.80;;;;;;5050613;28;20040;-81
2022/04/16 04:14:59;;;;;;;6.95;5.60;;;7.50;72.70;;;;;;5051005;28;20024;-81
2022/04/16 04:17:24;;;;;;;10.27;6.63;;;7.40;72.80;;;;;;5035791;28;20028;-82
2022/04/16 04:19:51;;;;;;;7.95;5.72;;;7.40;73.00;;;;;;5054619;28;20026;-80
2022/04/16 04:22:19;;;;;;;5.40;4.10;;;7.40;72.90;;;;;;5056257;28;20048;-81
2022/04/16 04:24:45;;;;;;;5.97;3.50;;;7.50;72.90;;;;;;5056037;28;20104;-81
2022/04/16 04:27:11;;;;;;;4.10;3.00;;;7.30;72.60;;;;;;5055827;28;20024;-82
2022/04/16 04:29:38;;;;;;;5.05;3.47;;;7.30;72.90;;;;;;5054233;28;20025;-82
2022/04/16 04:32:09;;;;;;;4.88;3.33;;;7.30;72.90;;;;;;5056410;28;20493;-82
2022/04/16 04:34:35;;;;;;;4.68;3.78;;;7.20;72.90;;;;;;5054983;28;20498;-82
2022/04/16 04:37:01;;;;;;;6.05;4.47;;;7.20;73.10;;;;;;5054425;28;20095;-81
2022/04/16 04:39:28;;;;;;;11.23;7.13;;;7.20;73.30;;;;;;5055328;28;20490;-80
2022/04/16 04:41:55;;;;;;;6.80;5.63;;;7.10;73.20;;;;;;5037433;28;20410;-81
2022/04/16 04:44:22;;;;;;;6.22;4.68;;;7.20;73.20;;;;;;5054279;28;20112;-82
2022/04/16 04:46:49;;;;;;;8.07;4.60;;;7.20;73.00;;;;;;5054277;28;20031;-81
2022/04/16 04:49:15;;;;;;;5.90;4.53;;;7.30;73.10;;;;;;5054849;28;20043;-80
2022/04/16 04:51:43;;;;;;;10.43;4.35;;;7.30;72.90;;;;;;5055901;28;20021;-80
2022/04/16 04:54:08;;;;;;;6.70;3.17;;;7.30;72.60;;;;;;5054153;28;20394;-80
2022/04/16 04:56:35;;;;;;;3.90;3.10;;;7.40;72.40;;;;;;5055630;28;20500;-80
2022/04/16 04:59:03;;;;;;;5.68;3.65;;;7.40;72.30;;;;;;5053750;28;20116;-80
2022/04/16 05:01:28;;;;;;;4.82;3.33;;;7.30;71.70;;;;;;5054062;28;20021;-80
2022/04/16 05:03:54;;;;;;;7.43;4.07;;;7.30;71.80;;;;;;5054117;28;20017;-80
2022/04/16 05:06:25;;;;;;;5.70;3.20;;;7.30;72.10;;;;;;5055338;28;20398;-80
2022/04/16 05:08:51;;;;;;;5.68;4.22;;;7.20;71.90;;;;;;5055621;28;20036;-80
2022/04/16 05:11:18;;;;;;;9.60;4.72;;;7.30;71.90;;;;;;5054305;28;20028;-80
2022/04/16 05:13:45;;;;;;;6.78;4.72;;;7.30;71.20;;;;;;5054999;28;20033;-81
2022/04/16 05:16:12;;;;;;;6.80;4.93;;;7.20;71.00;;;;;;5067875;28;20089;-80
2022/04/16 05:18:38;;;;;;;7.10;5.00;;;7.30;71.40;;;;;;5063471;28;20032;-79
2022/04/16 05:21:04;;;;;;;7.53;4.60;;;7.20;71.70;;;;;;5079445;28;20021;-79
2022/04/16 05:23:35;;;;;;;6.25;4.90;;;7.20;72.20;;;;;;5079207;28;20024;-80
2022/04/16 05:26:01;;;;;;;7.25;4.88;;;7.30;72.50;;;;;;5076321;28;20096;-80
2022/04/16 05:28:28;;;;;;;8.70;5.00;;;7.30;72.60;;;;;;5078528;28;20016;-80
2022/04/16 05:31:00;;;;;;;7.65;5.25;;;7.40;72.30;;;;;;5078657;28;20021;-81
2022/04/16 05:36:10;;;;;;;7.72;5.40;;;7.40;72.10;;;;;;5077712;28;20059;-80
2022/04/16 05:38:36;;;;;;;9.70;6.18;;;7.50;72.30;;;;;;5071574;28;20033;-79
2022/04/16 05:41:02;;;;;;;9.50;5.05;;;7.60;72.00;;;;;;5071221;28;20032;-80
2022/04/16 05:43:27;;;;;;;11.80;6.18;;;7.70;71.50;;;;;;5069545;28;20032;-80
2022/04/16 05:45:53;;;;;;;12.70;7.00;;;7.90;71.10;;;;;;5065046;28;20029;-81
2022/04/16 05:48:18;;;;;;;15.82;7.43;;;7.90;70.70;;;;;;5063259;28;20109;-82
2022/04/16 05:50:45;;;;;;;15.18;7.65;;;8.00;70.70;;;;;;5053318;28;20036;-82
2022/04/16 05:53:14;;;;;;;15.55;8.18;;;8.10;70.50;;;;;;5053061;28;20021;-82
2022/04/16 05:55:46;;;;;;;13.63;8.00;;;8.10;70.30;;;;;;5053122;28;20040;-80
2022/04/16 05:58:21;;;;;;;14.00;8.50;;;8.30;70.20;;;;;;5052994;28;20024;-81
2022/04/16 06:00:46;;;;;;;15.63;8.63;;;8.40;70.00;;;;;;5052474;28;20036;-81
2022/04/16 06:03:12;;;;;;;14.18;8.20;;;8.50;69.90;;;;;;5052348;28;20045;-83
2022/04/16 06:05:38;;;;;;;13.80;8.15;;;8.60;69.70;;;;;;5054036;28;20073;-81
2022/04/16 06:08:04;;;;;;;11.05;6.80;;;8.60;69.90;;;;;;5052376;28;20032;-81
2022/04/16 06:10:30;;;;;;;8.07;5.65;;;8.70;70.10;;;;;;5052544;28;20090;-81
2022/04/16 06:13:00;;;;;;;8.75;5.53;;;8.80;70.20;;;;;;5052723;28;20119;-82
2022/04/16 06:15:25;;;;;;;6.53;5.15;;;8.90;69.80;;;;;;5053201;28;20051;-83
2022/04/16 06:17:53;;;;;;;10.18;5.32;;;9.10;69.60;;;;;;5053619;28;20021;-82
2022/04/16 06:20:39;;;;;;;6.45;4.80;;;9.20;69.00;;;;;;5053962;28;20056;-81
2022/04/16 06:23:09;;;;;;;7.95;4.57;;;9.30;68.70;;;;;;5051851;28;20072;-81
2022/04/16 06:25:48;;;;;;;7.35;5.18;;;9.50;68.30;;;;;;5039910;28;20025;-85
2022/04/16 06:28:14;;;;;;;8.13;4.55;;;9.50;68.40;;;;;;5053025;28;20121;-84
2022/04/16 06:30:41;;;;;;;10.23;4.45;;;9.70;68.30;;;;;;5053252;28;20033;-85
2022/04/16 06:33:08;;;;;;;9.55;4.47;;;9.80;67.60;;;;;;5054200;28;20025;-82
2022/04/16 06:35:35;;;;;;;8.65;4.80;;;9.90;67.80;;;;;;5036045;28;20096;-83
2022/04/16 06:38:01;;;;;;;9.38;4.45;;;10.00;67.40;;;;;;5052976;28;20112;-76
2022/04/16 06:40:27;;;;;;;17.58;6.10;;;10.20;71.90;;;;;;5053141;28;20065;-73
2022/04/16 06:42:52;;;;;;;10.18;4.90;;;10.60;81.90;;;;;;5053175;28;20029;-73
2022/04/16 06:45:18;;;;;;;6.30;4.28;;;11.00;75.70;;;;;;5053106;28;20155;-77
2022/04/16 06:47:43;;;;;;;6.88;4.60;;;11.30;69.70;;;;;;5053255;28;20053;-73
2022/04/16 06:50:09;;;;;;;5.93;4.13;;;11.50;67.60;;;;;;5053242;28;20036;-74
2022/04/16 06:52:36;;;;;;;6.80;4.43;;;11.70;67.90;;;;;;5053099;28;20040;-73
2022/04/16 06:55:03;;;;;;;6.22;3.30;;;12.00;66.80;;;;;;5053232;28;20028;-77
2022/04/16 06:57:28;;;;;;;5.65;3.45;;;12.20;64.10;;;;;;5052782;28;20032;-77
2022/04/16 06:59:54;;;;;;;4.53;3.60;;;12.40;63.60;;;;;;5052927;28;20095;-73
2022/04/16 07:02:19;;;;;;;4.85;3.22;;;12.60;62.80;;;;;;5052812;28;20037;-73
2022/04/16 07:04:45;;;;;;;6.72;4.15;;;12.80;60.20;;;;;;5052776;28;20482;-77
2022/04/16 07:07:10;;;;;;;4.50;3.60;;;13.00;58.90;;;;;;5052926;28;20435;-75
2022/04/16 07:09:38;;;;;;;4.53;3.17;;;13.20;58.20;;;;;;5052745;28;20029;-76
2022/04/16 07:12:07;;;;;;;5.38;3.65;;;13.40;57.30;;;;;;5053031;28;20024;-77
2022/04/16 07:14:34;;;;;;;4.93;3.70;;;13.60;57.30;;;;;;5052760;28;20074;-77
2022/04/16 07:17:01;;;;;;;5.78;3.55;;;13.60;56.50;;;;;;5052701;28;20048;-75
2022/04/16 07:19:31;;;;;;;5.07;3.10;;;13.80;55.10;;;;;;5051223;28;20052;-76
2022/04/16 07:21:57;;;;;;;3.85;2.65;;;14.10;54.40;;;;;;5052679;28;20088;-72
2022/04/16 07:24:25;;;;;;;3.83;2.72;;;14.40;52.90;;;;;;5052579;28;20032;-75
2022/04/16 07:26:53;;;;;;;3.92;3.17;;;14.70;51.50;;;;;;5052560;28;20382;-76
2022/04/16 07:29:23;;;;;;;4.60;3.88;;;14.90;51.00;;;;;;5053381;28;20032;-87
2022/04/16 07:31:49;;;;;;;4.38;3.50;;;14.90;49.60;;;;;;5056895;28;20017;-86
2022/04/16 07:34:15;;;;;;;4.20;3.55;;;14.60;49.60;;;;;;5051984;28;20052;-83
2022/04/16 07:36:46;;;;;;;7.47;3.80;;;14.00;51.50;;;;;;5050765;28;20064;-83
2022/04/16 07:39:12;;;;;;;5.97;3.42;;;13.70;52.80;;;;;;5048616;28;20474;-85
2022/04/16 07:41:40;;;;;;;5.13;3.58;;;13.30;53.30;;;;;;5050831;28;20427;-82
2022/04/16 07:44:08;;;;;;;5.40;4.00;;;12.70;54.90;;;;;;5052537;28;20037;-86
2022/04/16 07:46:35;;;;;;;5.43;4.35;;;12.40;56.20;;;;;;5051940;28;20156;-87
2022/04/16 07:49:03;;;;;;;6.05;3.85;;;12.30;57.50;;;;;;5052156;28;20033;-87
2022/04/16 07:51:39;;;;;;;3.88;3.30;;;12.20;57.80;;;;;;5054030;28;20029;-87
2022/04/16 07:54:26;;;;;;;4.95;3.80;;;12.10;57.30;;;;;;5056829;28;20063;-84
2022/04/16 07:57:01;;;;;;;3.88;3.22;;;12.00;57.00;;;;;;5054313;28;20029;-87
2022/04/16 07:59:40;;;;;;;3.85;2.72;;;11.90;56.90;;;;;;5057084;28;20032;-89
2022/04/16 08:02:06;;;;;;;5.15;3.03;;;11.90;57.00;;;;;;5055887;28;20487;-88
2022/04/16 08:04:39;;;;;;;3.67;3.15;;;11.90;56.50;;;;;;5056192;28;20040;-86
2022/04/16 08:07:07;;;;;;;4.63;3.13;;;12.00;55.80;;;;;;5057328;28;20402;-88
2022/04/16 08:09:37;;;;;;;4.38;2.75;;;11.90;54.70;;;;;;5039324;28;20029;-87
2022/04/16 08:12:05;;;;;;;2.85;2.33;;;11.70;54.10;;;;;;5055233;28;20069;-87
2022/04/16 08:14:41;;;;;;;2.80;2.50;;;11.70;54.30;;;;;;5055447;28;20492;-87
2022/04/16 08:17:19;;;;;;;4.10;2.38;;;11.80;54.00;;;;;;5056756;28;20585;-88
2022/04/16 08:20:05;;;;;;;3.08;2.08;;;11.90;52.70;;;;;;5057670;28;20045;-84
2022/04/16 08:22:59;;;;;;;4.55;2.75;;;12.10;52.00;;;;;;5055323;28;20045;-83
2022/04/16 08:26:00;;;;;;;2.75;2.15;;;12.30;51.20;;;;;;5057013;28;20029;-87
2022/04/16 08:28:30;;;;;;;4.65;2.78;;;12.20;49.80;;;;;;5055640;28;20501;-87
2022/04/16 08:30:59;;;;;;;3.60;2.40;;;12.10;50.30;;;;;;5038622;28;20060;-88
2022/04/16 08:33:25;;;;;;;2.30;2.10;;;12.00;50.80;;;;;;5040015;28;20397;-86
2022/04/16 08:35:54;;;;;;;2.67;2.35;;;12.00;50.30;;;;;;5056259;28;20037;-83
2022/04/16 08:39:02;;;;;;;2.38;2.13;;;12.10;50.50;;;;;;5055215;28;20025;-85
2022/04/16 08:41:31;;;;;;;3.83;2.80;;;12.20;50.80;;;;;;5057073;28;20021;-82
2022/04/16 08:44:14;;;;;;;3.45;2.60;;;12.50;51.70;;;;;;5067422;28;20041;-87
2022/04/16 08:46:54;;;;;;;2.53;2.20;;;12.80;51.70;;;;;;5058803;28;20044;-86
2022/04/16 08:49:47;;;;;;;3.80;2.90;;;13.30;52.80;;;;;;5079556;28;20056;-84
2022/04/16 08:52:46;;;;;;;3.53;2.47;;;13.60;49.90;;;;;;5078788;28;20033;-83
2022/04/16 08:55:36;;;;;;;3.97;2.70;;;13.50;46.80;;;;;;5078858;28;20108;-85
2022/04/16 08:58:06;;;;;;;3.88;2.47;;;13.50;46.00;;;;;;5056908;28;20029;-84
2022/04/16 09:00:35;;;;;;;3.88;2.97;;;13.50;46.70;;;;;;5049904;28;20044;-88
2022/04/16 09:03:05;;;;;;;3.85;3.05;;;13.50;46.90;;;;;;5042973;28;20101;-87
2022/04/16 09:05:55;;;;;;;6.50;3.30;;;13.40;47.40;;;;;;5047301;28;20463;-82
2022/04/16 09:08:33;;;;;;;5.43;3.33;;;13.10;48.20;;;;;;5052562;28;20032;-82
2022/04/16 09:11:19;;;;;;;5.22;4.10;;;12.70;50.50;;;;;;5054345;28;20020;-86
2022/04/16 09:14:23;;;;;;;7.05;4.53;;;12.60;52.00;;;;;;5055925;28;20021;-86
2022/04/16 09:16:50;;;;;;;7.35;4.80;;;12.40;53.90;;;;;;5054392;28;20037;-82
2022/04/16 09:19:39;;;;;;;4.78;3.92;;;12.30;54.80;;;;;;5049785;28;20037;-84
2022/04/16 09:22:09;;;;;;;6.70;4.75;;;12.20;56.00;;;;;;5053392;28;20115;-84
2022/04/16 09:24:49;;;;;;;8.15;4.88;;;12.20;56.30;;;;;;5054826;28;20029;-84
2022/04/16 09:27:19;;;;;;;8.73;5.47;;;12.20;57.00;;;;;;5036216;28;20083;-80
2022/04/16 09:29:46;;;;;;;6.82;4.97;;;12.30;57.30;;;;;;5052858;28;20017;-79
2022/04/16 09:32:24;;;;;;;7.32;5.13;;;12.50;57.00;;;;;;5036351;28;20056;-80
2022/04/16 09:34:52;;;;;;;8.13;5.18;;;12.60;56.00;;;;;;5052759;28;20021;-83
2022/04/16 09:37:22;;;;;;;5.60;4.60;;;12.70;56.20;;;;;;5052659;28;20040;-79
2022/04/16 09:39:50;;;;;;;8.23;6.20;;;13.00;56.10;;;;;;5053789;28;20022;-80
2022/04/16 09:42:26;;;;;;;8.05;5.53;;;13.10;54.80;;;;;;5051038;28;20056;-80
2022/04/16 09:44:53;;;;;;;7.10;5.00;;;13.20;54.40;;;;;;5052632;28;20387;-80
2022/04/16 09:47:24;;;;;;;7.32;5.00;;;13.30;54.10;;;;;;5052326;28;20029;-82
2022/04/16 09:49:53;;;;;;;7.32;4.57;;;13.00;53.30;;;;;;5053386;28;20086;-80
2022/04/16 09:52:21;;;;;;;6.43;4.38;;;12.80;54.20;;;;;;5052260;28;20497;-80
2022/04/16 09:54:51;;;;;;;6.57;4.93;;;12.70;54.40;;;;;;5052511;28;20099;-80
2022/04/16 09:57:40;;;;;;;7.45;4.75;;;12.60;54.90;;;;;;5052510;28;20071;-80
2022/04/16 10:00:08;;;;;;;5.50;3.95;;;12.40;56.40;;;;;;5049453;28;20035;-77
2022/04/16 10:02:35;;;;;;;4.20;3.42;;;12.50;59.30;;;;;;5051106;28;20055;-78
2022/04/16 10:05:07;;;;;;;8.60;4.13;;;12.80;61.00;;;;;;5052226;28;20037;-90
2022/04/16 10:07:36;;;;;;;5.13;3.85;;;13.00;59.50;;;;;;5053343;28;20051;-82
2022/04/16 10:10:17;;;;;;;4.13;3.13;;;13.10;54.40;;;;;;5054431;28;20025;-85
2022/04/16 10:16:08;;;;;;;4.70;3.45;;;13.20;50.80;;;;;;5053360;28;20051;-86
2022/04/16 10:19:44;;;;;;;5.30;2.90;;;13.30;49.50;;;;;;5048820;28;20032;-86
2022/04/16 10:23:27;;;;;;;7.65;4.72;;;13.50;50.80;;;;;;5045082;28;20033;-88
2022/04/16 10:27:01;;;;;;;4.35;2.80;;;13.50;49.50;;;;;;5035322;28;20017;-88
2022/04/16 10:33:52;;;;;;;4.30;3.10;;;13.40;46.60;;;;;;5015984;28;20076;-88
2022/04/16 10:37:00;;;;;;;3.75;2.58;;;13.40;46.50;;;;;;4963821;28;20105;-87
2022/04/16 10:40:26;;;;;;;3.42;2.92;;;13.30;46.00;;;;;;4880945;29;20057;-87
2022/04/16 10:47:09;;;;;;;4.53;2.67;;;13.30;47.90;;;;;;4848538;29;20071;-87
2022/04/16 10:49:41;;;;;;;3.30;2.60;;;13.40;48.10;;;;;;4824155;29;20125;-80
2022/04/16 10:52:19;;;;;;;3.67;2.88;;;13.50;48.10;;;;;;4843804;29;20128;-80
2022/04/16 10:54:47;;;;;;;3.63;2.75;;;13.60;47.80;;;;;;4882684;29;20060;-80
2022/04/16 10:57:21;;;;;;;4.78;3.22;;;13.60;47.40;;;;;;4904363;29;20042;-78
2022/04/16 10:59:47;;;;;;;4.97;2.90;;;13.60;46.80;;;;;;4902951;29;20111;-79
2022/04/16 11:02:21;;;;;;;5.80;3.67;;;13.60;46.80;;;;;;4914585;29;20040;-80
2022/04/16 11:05:16;;;;;;;5.25;3.28;;;13.70;46.70;;;;;;4914476;29;20057;-82
2022/04/16 11:07:46;;;;;;;3.33;2.65;;;13.80;46.50;;;;;;4926970;29;20040;-81
2022/04/16 11:10:14;;;;;;;3.92;3.00;;;14.00;45.90;;;;;;4939998;28;20038;-81
2022/04/16 11:12:40;;;;;;;5.65;3.05;;;14.10;45.10;;;;;;4991354;28;20550;-81
2022/04/16 11:15:15;;;;;;;4.10;2.38;;;14.50;44.30;;;;;;4991755;28;20151;-81
2022/04/16 11:17:41;;;;;;;3.50;2.83;;;14.40;42.60;;;;;;4959380;28;20030;-81
2022/04/16 11:20:08;;;;;;;4.20;2.47;;;14.20;43.30;;;;;;4974628;28;20057;-82
2022/04/16 11:22:41;;;;;;;2.72;2.20;;;14.20;42.80;;;;;;4976029;28;20644;-82
2022/04/16 11:25:08;;;;;;;3.38;2.40;;;14.20;42.80;;;;;;4977509;28;20073;-81
2022/04/16 11:36:01;;;;;;;3.33;2.40;;;14.20;43.20;;;;;;4994234;28;20092;-80
2022/04/16 11:38:33;;;;;;;3.25;2.40;;;14.30;43.40;;;;;;4977283;28;20161;-81
2022/04/16 11:41:04;;;;;;;3.67;2.70;;;14.30;42.70;;;;;;4960990;28;20480;-80
2022/04/16 11:43:30;;;;;;;3.67;2.65;;;14.30;42.60;;;;;;4990444;28;20097;-81
2022/04/16 11:46:09;;;;;;;4.15;2.28;;;14.30;42.60;;;;;;4958612;28;20135;-81
2022/04/16 11:48:40;;;;;;;2.78;2.30;;;14.20;42.70;;;;;;4974876;28;20081;-80
2022/04/16 11:51:08;;;;;;;2.60;1.95;;;14.30;42.80;;;;;;4959599;28;20516;-82
2022/04/16 11:53:43;;;;;;;4.25;2.28;;;14.40;42.80;;;;;;4991236;28;20033;-81
2022/04/16 11:56:10;;;;;;;;;;;14.50;43.30;;;;;;4975495;28;20073;-82
2022/04/16 11:58:39;;;;;;;5.88;3.28;;;14.60;43.10;;;;;;4974940;28;19906;-82
2022/04/16 12:01:07;;;;;;;3.33;2.60;;;14.60;43.10;;;;;;4974914;28;20057;-81
2022/04/16 12:03:38;;;;;;;4.30;3.13;;;14.60;42.80;;;;;;4991047;28;20120;-81
2022/04/16 12:06:10;;;;;;;5.05;3.25;;;14.60;42.90;;;;;;4990752;28;20046;-81
2022/04/16 12:08:45;;;;;;;2.63;2.08;;;14.60;42.30;;;;;;4991163;28;20065;-81
2022/04/16 12:11:13;;;;;;;5.30;3.05;;;14.80;41.10;;;;;;4991077;28;20037;-81
2022/04/16 12:13:58;;;;;;;4.05;2.83;;;15.00;40.60;;;;;;4990306;28;20031;-82
2022/04/16 12:16:36;;;;;;;3.50;2.60;;;15.30;41.50;;;;;;4958941;28;20030;-82
2022/04/16 12:19:04;;;;;;;4.00;2.88;;;15.60;38.60;;;;;;4990566;28;20060;-79
2022/04/16 12:21:42;;;;;;;3.97;3.20;;;15.70;38.80;;;;;;4990388;28;20037;-82
2022/04/16 12:24:09;;;;;;;3.55;3.17;;;15.70;38.60;;;;;;4990405;28;20133;-79
2022/04/16 12:26:47;;;;;;;3.75;3.17;;;15.50;39.10;;;;;;4973970;28;20022;-80
2022/04/16 12:29:13;;;;;;;4.28;3.03;;;15.60;38.30;;;;;;4974100;28;20133;-81
2022/04/16 12:31:40;;;;;;;3.20;2.90;;;15.70;38.30;;;;;;4990336;28;20070;-80
2022/04/16 12:34:06;;;;;;;3.70;3.30;;;15.60;38.00;;;;;;4973866;28;20126;-80
2022/04/16 12:36:33;;;;;;;3.10;2.80;;;15.50;37.70;;;;;;4995577;28;20101;-81
2022/04/16 12:38:59;;;;;;;3.28;2.95;;;15.50;38.10;;;;;;5052035;28;20108;-81
2022/04/16 12:41:26;;;;;;;3.42;2.88;;;15.50;37.90;;;;;;5053996;28;20021;-82
2022/04/16 12:44:05;;;;;;;4.38;3.63;;;15.40;38.30;;;;;;5053786;28;20028;-81
2022/04/16 12:46:30;;;;;;;4.68;3.28;;;15.40;38.40;;;;;;5054290;28;20021;-80
2022/04/16 12:48:59;;;;;;;4.25;3.15;;;15.40;38.90;;;;;;5054175;28;20048;-80
2022/04/16 12:51:29;;;;;;;4.63;3.60;;;15.60;38.60;;;;;;5037771;28;20497;-80
2022/04/16 12:53:55;;;;;;;4.38;3.60;;;15.70;38.00;;;;;;5056293;28;20025;-80
2022/04/16 12:56:21;;;;;;;4.13;3.58;;;15.60;37.70;;;;;;5054417;28;20458;-83
2022/04/16 12:58:50;;;;;;;3.95;3.47;;;15.60;38.20;;;;;;5037095;28;20146;-81
2022/04/16 13:01:17;;;;;;;4.35;3.63;;;15.60;38.80;;;;;;5037394;28;20043;-81
2022/04/16 13:03:43;;;;;;;4.55;3.25;;;15.50;39.00;;;;;;5055076;28;20083;-80
2022/04/16 13:06:11;;;;;;;5.25;3.63;;;15.20;39.00;;;;;;5053319;28;20049;-81
2022/04/16 13:08:37;;;;;;;3.35;2.97;;;15.10;38.30;;;;;;5053469;28;20455;-81
2022/04/16 13:11:06;;;;;;;3.72;2.97;;;14.90;38.30;;;;;;5053669;28;20048;-82
2022/04/16 13:13:33;;;;;;;3.20;2.85;;;15.30;39.00;;;;;;5054995;28;20021;-82
2022/04/16 13:15:59;;;;;;;3.72;3.20;;;15.50;38.10;;;;;;5039243;28;20414;-80
2022/04/16 13:18:27;;;;;;;4.25;3.50;;;15.60;37.90;;;;;;5059303;28;20067;-80
2022/04/16 13:20:54;;;;;;;3.40;3.10;;;15.80;37.70;;;;;;5059051;28;20021;-79
2022/04/16 13:23:21;;;;;;;3.22;2.92;;;16.00;37.70;;;;;;5058650;28;20033;-80
2022/04/16 13:25:48;;;;;;;3.05;2.45;;;16.30;37.60;;;;;;5056945;28;20029;-80
2022/04/16 13:28:15;;;;;;;3.22;2.90;;;16.90;36.80;;;;;;5036462;28;20033;-81
2022/04/16 13:31:01;;;;;;;3.13;2.80;;;17.20;35.10;;;;;;5037138;28;20032;-81
2022/04/16 13:33:28;;;;;;;;;;;17.80;34.80;;;;;;5053802;28;20474;-81
2022/04/16 13:35:55;;;;;;;4.05;3.28;;;18.30;33.70;;;;;;5054972;28;20374;-81
2022/04/16 13:38:20;;;;;;;4.00;3.33;;;18.70;33.00;;;;;;5053150;28;20486;-81
2022/04/16 13:43:34;;;;;;;3.83;3.10;;;19.60;31.80;;;;;;5054815;28;20047;-83